createdAt,value
2023-02-02T00:01:55.533Z,12.36
2023-02-02T00:04:24.772Z,12.10
2023-02-02T00:06:52.315Z,12.35
2023-02-02T00:09:20.464Z,12.34
2023-02-02T00:11:48.505Z,12.33
2023-02-02T00:14:15.888Z,11.98
2023-02-02T00:16:44.982Z,12.15
2023-02-02T00:19:14.323Z,11.97
2023-02-02T00:21:41.753Z,12.32
2023-02-02T00:24:09.493Z,12.32
2023-02-02T00:26:36.947Z,12.08
2023-02-02T00:29:04.710Z,11.94
2023-02-02T00:31:32.107Z,12.29
2023-02-02T00:34:00.826Z,12.29
2023-02-02T00:36:28.241Z,12.29
2023-02-02T00:38:55.627Z,12.29
2023-02-02T00:41:23.024Z,12.29
2023-02-02T00:44:10.382Z,12.28
2023-02-02T00:46:39.061Z,12.26
2023-02-02T00:49:07.777Z,12.27
2023-02-02T00:51:35.265Z,12.27
2023-02-02T00:54:02.667Z,12.26
2023-02-02T00:56:30.054Z,12.25
2023-02-02T00:58:57.432Z,12.24
2023-02-02T01:01:25.207Z,12.09
2023-02-02T01:03:52.756Z,12.24
2023-02-02T01:06:21.460Z,12.25
2023-02-02T01:08:48.825Z,12.24
2023-02-02T01:11:16.332Z,12.23
2023-02-02T01:13:43.734Z,12.22
2023-02-02T01:16:11.235Z,12.22
2023-02-02T01:18:38.723Z,11.79
2023-02-02T01:21:07.470Z,11.78
2023-02-02T01:23:36.626Z,11.68
2023-02-02T01:26:05.347Z,11.85
2023-02-02T01:28:32.746Z,12.10
2023-02-02T01:31:00.184Z,12.04
2023-02-02T01:33:27.574Z,12.18
2023-02-02T01:35:56.107Z,12.18
2023-02-02T01:38:24.316Z,12.18
2023-02-02T01:40:53.662Z,12.18
2023-02-02T01:43:24.274Z,11.90
2023-02-02T01:45:51.869Z,11.74
2023-02-02T01:48:19.817Z,12.16
2023-02-02T01:50:47.206Z,11.73
2023-02-02T01:53:14.567Z,12.14
2023-02-02T01:55:42.005Z,12.15
2023-02-02T01:58:12.683Z,12.15
2023-02-02T02:00:40.741Z,12.15
2023-02-02T02:03:09.351Z,12.04
2023-02-02T02:05:39.465Z,12.16
2023-02-02T02:08:08.986Z,12.12
2023-02-02T02:10:36.378Z,12.13
2023-02-02T02:13:03.746Z,12.13
2023-02-02T02:15:51.243Z,12.02
2023-02-02T02:18:25.206Z,12.09
2023-02-02T02:21:44.219Z,12.12
2023-02-02T02:25:26.635Z,12.12
2023-02-02T02:28:20.112Z,12.11
2023-02-02T02:31:21.076Z,12.11
2023-02-02T02:33:51.602Z,12.10
2023-02-02T02:36:20.266Z,12.10
2023-02-02T02:38:52.339Z,12.09
2023-02-02T02:41:21.674Z,11.98
2023-02-02T02:43:51.273Z,12.09
2023-02-02T02:46:18.694Z,12.07
2023-02-02T02:48:46.187Z,12.07
2023-02-02T02:51:42.165Z,12.09
2023-02-02T02:54:09.595Z,11.96
2023-02-02T02:56:42.637Z,12.08
2023-02-02T02:59:13.364Z,12.06
2023-02-02T03:01:44.110Z,12.02
2023-02-02T03:04:13.395Z,12.05
2023-02-02T03:06:43.897Z,12.05
2023-02-02T03:09:12.347Z,11.79
2023-02-02T03:11:39.747Z,12.05
2023-02-02T03:14:09.602Z,12.05
2023-02-02T03:16:37.717Z,12.00
2023-02-02T03:19:05.333Z,12.04
2023-02-02T03:21:32.755Z,12.04
2023-02-02T03:24:01.564Z,12.04
2023-02-02T03:26:28.999Z,12.00
2023-02-02T03:28:56.786Z,12.04
2023-02-02T03:31:24.642Z,11.82
2023-02-02T03:33:52.036Z,12.02
2023-02-02T03:36:19.448Z,12.04
2023-02-02T03:38:46.825Z,12.02
2023-02-02T03:41:15.935Z,12.03
2023-02-02T03:43:43.314Z,12.03
2023-02-02T03:46:10.741Z,12.04
2023-02-02T03:48:38.570Z,12.02
2023-02-02T03:51:07.462Z,12.02
2023-02-02T03:53:34.856Z,12.01
2023-02-02T03:56:02.271Z,12.01
2023-02-02T03:58:31.017Z,12.01
2023-02-02T04:01:00.531Z,12.02
2023-02-02T04:03:27.890Z,12.01
2023-02-02T04:05:55.275Z,12.01
2023-02-02T04:08:22.642Z,12.02
2023-02-02T04:10:50.006Z,12.02
2023-02-02T04:13:17.444Z,12.02
2023-02-02T04:15:46.148Z,12.02
2023-02-02T04:18:13.702Z,12.02
2023-02-02T04:20:41.105Z,12.01
2023-02-02T04:23:08.538Z,12.02
2023-02-02T04:25:36.018Z,12.01
2023-02-02T04:28:03.439Z,12.01
2023-02-02T04:30:30.875Z,12.00
2023-02-02T04:32:59.599Z,12.01
2023-02-02T04:35:27.233Z,12.01
2023-02-02T04:37:56.094Z,12.00
2023-02-02T04:40:23.560Z,11.99
2023-02-02T04:42:50.936Z,12.01
2023-02-02T04:45:18.315Z,12.00
2023-02-02T04:47:45.691Z,12.00
2023-02-02T04:50:14.393Z,12.00
2023-02-02T04:52:41.788Z,11.99
2023-02-02T04:55:09.791Z,12.00
2023-02-02T04:57:37.171Z,12.00
2023-02-02T05:00:05.044Z,12.00
2023-02-02T05:02:32.450Z,12.00
2023-02-02T05:04:59.844Z,12.00
2023-02-02T05:07:28.536Z,12.00
2023-02-02T05:09:55.907Z,11.99
2023-02-02T05:12:23.276Z,12.01
2023-02-02T05:14:50.669Z,12.01
2023-02-02T05:17:18.056Z,12.02
2023-02-02T05:19:45.514Z,12.05
2023-02-02T05:22:13.012Z,12.06
2023-02-02T05:24:41.695Z,12.08
2023-02-02T05:27:09.072Z,12.09
2023-02-02T05:29:36.446Z,12.12
2023-02-02T05:32:03.935Z,12.12
2023-02-02T05:34:31.307Z,12.16
2023-02-02T05:36:58.673Z,12.16
2023-02-02T05:39:26.137Z,12.18
2023-02-02T05:41:54.825Z,12.19
2023-02-02T05:44:22.207Z,12.21
2023-02-02T05:46:49.603Z,12.21
2023-02-02T05:49:16.953Z,12.24
2023-02-02T05:51:45.808Z,12.26
2023-02-02T05:54:17.187Z,11.88
2023-02-02T05:56:44.975Z,12.25
2023-02-02T05:59:13.805Z,12.28
2023-02-02T06:01:41.179Z,12.34
2023-02-02T06:04:08.654Z,12.34
2023-02-02T06:06:37.833Z,12.35
2023-02-02T06:09:05.267Z,12.35
2023-02-02T06:11:32.643Z,12.36
2023-02-02T06:14:00.009Z,12.37
2023-02-02T06:16:28.718Z,12.38
2023-02-02T06:18:56.448Z,12.40
2023-02-02T06:21:24.645Z,12.03
2023-02-02T06:23:52.159Z,12.43
2023-02-02T06:26:19.928Z,12.45
2023-02-02T06:28:49.562Z,12.48
2023-02-02T06:31:19.049Z,12.49
2023-02-02T06:33:47.887Z,12.51
2023-02-02T06:36:15.341Z,12.29
2023-02-02T06:38:42.715Z,12.59
2023-02-02T06:41:10.367Z,12.62
2023-02-02T06:43:37.767Z,12.60
2023-02-02T06:46:05.460Z,12.68
2023-02-02T06:48:32.863Z,12.68
2023-02-02T06:51:01.640Z,12.72
2023-02-02T06:53:29.048Z,12.39
2023-02-02T06:55:56.474Z,12.77
2023-02-02T06:58:23.905Z,12.79
2023-02-02T07:00:51.278Z,12.82
2023-02-02T07:03:18.712Z,12.59
2023-02-02T07:05:46.074Z,12.75
2023-02-02T07:08:14.784Z,12.78
2023-02-02T07:11:09.381Z,12.82
2023-02-02T07:13:30.290Z,12.84
2023-02-02T07:15:58.159Z,12.87
2023-02-02T07:18:25.678Z,12.92
2023-02-02T07:20:53.044Z,12.95
2023-02-02T07:23:21.719Z,12.98
2023-02-02T07:25:49.084Z,13.01
2023-02-02T07:28:16.455Z,13.02
2023-02-02T07:30:43.861Z,13.06
2023-02-02T07:33:11.279Z,13.06
2023-02-02T07:35:38.638Z,13.07
2023-02-02T07:38:06.011Z,13.08
2023-02-02T07:40:34.705Z,13.09
2023-02-02T07:43:02.438Z,13.09
2023-02-02T07:45:29.855Z,13.09
2023-02-02T07:47:57.390Z,13.12
2023-02-02T07:50:25.255Z,12.98
2023-02-02T07:52:52.654Z,13.17
2023-02-02T07:55:20.085Z,13.18
2023-02-02T07:57:48.802Z,13.19
2023-02-02T08:00:16.761Z,13.20
2023-02-02T08:02:44.161Z,13.23
2023-02-02T08:05:11.704Z,13.22
2023-02-02T08:07:39.097Z,13.22
2023-02-02T08:10:06.940Z,13.23
2023-02-02T08:12:34.321Z,11.65
2023-02-02T08:15:03.011Z,13.25
2023-02-02T08:17:30.395Z,13.26
2023-02-02T08:19:57.768Z,13.28
2023-02-02T08:22:25.152Z,13.28
2023-02-02T08:24:52.511Z,13.29
2023-02-02T08:27:19.884Z,13.27
2023-02-02T08:29:47.263Z,13.24
2023-02-02T08:32:15.953Z,13.28
2023-02-02T08:34:43.335Z,13.31
2023-02-02T08:37:10.901Z,13.28
2023-02-02T08:39:38.269Z,13.30
2023-02-02T08:42:05.654Z,13.32
2023-02-02T08:44:59.378Z,13.34
2023-02-02T08:47:21.789Z,13.34
2023-02-02T08:49:49.330Z,13.27
2023-02-02T08:52:16.698Z,13.28
2023-02-02T08:54:44.077Z,13.28
2023-02-02T08:57:11.440Z,13.33
2023-02-02T08:59:38.802Z,13.34
2023-02-02T09:02:06.252Z,13.36
2023-02-02T09:04:35.052Z,13.38
2023-02-02T09:07:02.431Z,13.36
2023-02-02T09:09:29.807Z,13.40
2023-02-02T09:11:57.167Z,13.41
2023-02-02T09:14:24.543Z,13.40
2023-02-02T09:16:51.963Z,13.40
2023-02-02T09:19:19.362Z,13.40
2023-02-02T09:21:50.029Z,13.41
2023-02-02T09:24:17.471Z,13.42
2023-02-02T09:26:45.321Z,13.42
2023-02-02T09:29:13.482Z,13.43
2023-02-02T09:31:40.907Z,13.45
2023-02-02T09:34:09.334Z,13.45
2023-02-02T09:36:36.799Z,13.40
2023-02-02T09:39:05.725Z,13.40
2023-02-02T09:42:03.400Z,13.01
2023-02-02T09:44:39.197Z,13.32
2023-02-02T09:47:12.358Z,13.33
2023-02-02T09:49:41.992Z,13.34
2023-02-02T09:52:10.903Z,13.38
2023-02-02T09:54:41.706Z,13.42
2023-02-02T09:59:38.169Z,13.13
2023-02-02T10:02:08.022Z,13.23
2023-02-02T10:04:36.245Z,13.50
2023-02-02T10:07:07.990Z,13.47
2023-02-02T10:09:40.699Z,13.52
2023-02-02T10:12:18.082Z,13.47
2023-02-02T10:14:48.383Z,13.31
2023-02-02T10:17:27.251Z,13.53
2023-02-02T10:19:56.216Z,13.54
2023-02-02T10:22:25.223Z,13.54
2023-02-02T10:24:53.916Z,13.54
2023-02-02T10:27:24.711Z,13.55
2023-02-02T10:29:54.319Z,13.54
2023-02-02T10:32:24.103Z,13.47
2023-02-02T10:35:13.908Z,13.61
2023-02-02T10:37:44.228Z,13.58
2023-02-02T10:40:18.250Z,13.44
2023-02-02T10:43:09.389Z,13.63
2023-02-02T10:45:36.948Z,13.62
2023-02-02T10:48:05.396Z,13.62
2023-02-02T10:50:32.786Z,13.62
2023-02-02T10:53:02.382Z,13.62
2023-02-02T10:55:33.432Z,13.50
2023-02-02T10:58:07.508Z,13.17
2023-02-02T11:00:38.432Z,13.61
2023-02-02T11:03:07.140Z,13.63
2023-02-02T11:05:52.262Z,13.65
2023-02-02T11:08:20.723Z,13.70
2023-02-02T11:10:50.760Z,13.73
2023-02-02T11:13:24.386Z,13.72
2023-02-02T11:15:51.821Z,13.73
2023-02-02T11:18:28.682Z,13.74
2023-02-02T11:20:56.404Z,13.26
2023-02-02T11:23:23.793Z,13.71
2023-02-02T11:26:00.063Z,13.71
2023-02-02T11:28:30.206Z,13.71
2023-02-02T11:30:57.522Z,13.69
2023-02-02T11:33:29.013Z,13.38
2023-02-02T11:35:57.539Z,13.72
2023-02-02T11:38:25.322Z,13.49
2023-02-02T11:41:00.751Z,13.71
2023-02-02T11:43:29.952Z,13.36
2023-02-02T11:46:02.290Z,13.44
2023-02-02T11:48:32.425Z,13.72
2023-02-02T11:51:00.820Z,13.73
2023-02-02T11:53:29.845Z,13.62
2023-02-02T11:55:59.932Z,13.74
2023-02-02T11:58:28.377Z,13.74
2023-02-02T12:00:58.040Z,13.47
2023-02-02T12:03:27.749Z,13.74
2023-02-02T12:05:55.139Z,13.74
2023-02-02T12:08:22.615Z,13.73
2023-02-02T12:10:56.612Z,13.74
2023-02-02T12:13:51.596Z,13.75
2023-02-02T12:16:29.298Z,13.56
2023-02-02T12:19:01.878Z,13.77
2023-02-02T12:21:35.878Z,13.76
2023-02-02T12:24:14.201Z,13.77
2023-02-02T12:26:42.502Z,13.70
2023-02-02T12:29:29.343Z,13.77
2023-02-02T12:32:05.677Z,13.77
2023-02-02T12:34:36.796Z,13.48
2023-02-02T12:37:07.196Z,13.79
2023-02-02T12:39:36.893Z,13.67
2023-02-02T12:42:15.632Z,13.79
2023-02-02T12:44:50.718Z,13.79
2023-02-02T12:47:19.334Z,13.79
2023-02-02T12:49:55.392Z,13.76
2023-02-02T12:52:32.056Z,13.78
2023-02-02T12:55:08.091Z,13.80
2023-02-02T12:57:43.464Z,13.79
2023-02-02T13:00:23.982Z,13.60
2023-02-02T13:03:00.573Z,13.79
2023-02-02T13:05:34.694Z,13.72
2023-02-02T13:08:02.452Z,13.81
2023-02-02T13:10:31.512Z,13.82
2023-02-02T13:13:00.938Z,13.81
2023-02-02T13:15:32.631Z,13.81
2023-02-02T13:18:00.366Z,13.81
2023-02-02T13:20:36.213Z,13.81
2023-02-02T13:23:05.756Z,13.43
2023-02-02T13:25:38.038Z,13.79
2023-02-02T13:28:06.694Z,13.80
2023-02-02T13:30:36.907Z,13.81
2023-02-02T13:33:06.336Z,13.45
2023-02-02T13:35:35.674Z,13.73
2023-02-02T13:38:06.888Z,13.83
2023-02-02T13:40:35.561Z,13.82
2023-02-02T13:43:07.271Z,13.82
2023-02-02T13:45:42.442Z,13.82
2023-02-02T13:48:16.335Z,13.45
2023-02-02T13:50:48.374Z,13.81
2023-02-02T13:53:29.621Z,13.61
2023-02-02T13:56:04.468Z,13.82
2023-02-02T13:58:51.349Z,13.83
2023-02-02T14:01:20.147Z,13.83
2023-02-02T14:03:52.477Z,13.86
2023-02-02T14:06:20.767Z,13.85
2023-02-02T14:08:49.859Z,13.85
2023-02-02T14:11:20.828Z,13.42
2023-02-02T14:14:06.627Z,13.83
2023-02-02T14:16:49.020Z,13.84
2023-02-02T14:19:17.554Z,13.83
2023-02-02T14:22:04.971Z,13.84
2023-02-02T14:24:43.342Z,13.84
2023-02-02T14:28:02.734Z,13.83
2023-02-02T14:30:32.563Z,13.81
2023-02-02T14:33:27.834Z,13.82
2023-02-02T14:36:02.118Z,13.80
2023-02-02T14:39:00.897Z,13.80
2023-02-02T14:41:52.353Z,13.79
2023-02-02T14:44:19.737Z,13.79
2023-02-02T14:46:49.221Z,13.80
2023-02-02T14:49:25.706Z,13.80
2023-02-02T14:51:56.001Z,13.77
2023-02-02T14:54:26.055Z,13.79
2023-02-02T14:56:56.715Z,13.80
2023-02-02T14:59:25.538Z,13.79
2023-02-02T15:01:55.912Z,13.37
2023-02-02T15:04:28.053Z,13.70
2023-02-02T15:06:55.753Z,13.49
2023-02-02T15:09:39.023Z,13.82
2023-02-02T15:12:30.535Z,13.85
2023-02-02T15:15:03.631Z,13.81
2023-02-02T15:17:34.404Z,13.79
2023-02-02T15:20:09.137Z,13.67
2023-02-02T15:22:38.188Z,13.75
2023-02-02T15:25:07.900Z,13.72
2023-02-02T15:27:37.282Z,13.44
2023-02-02T15:30:08.718Z,13.74
2023-02-02T15:32:36.321Z,13.74
2023-02-02T15:35:06.348Z,13.74
2023-02-02T15:37:40.036Z,13.73
2023-02-02T15:40:12.001Z,13.73
2023-02-02T15:42:53.583Z,13.69
2023-02-02T15:45:34.722Z,13.45
2023-02-02T15:48:03.976Z,13.71
2023-02-02T15:50:32.715Z,13.71
2023-02-02T15:53:00.112Z,13.70
2023-02-02T15:55:30.949Z,13.28
2023-02-02T15:57:58.363Z,13.70
2023-02-02T16:00:28.004Z,13.39
2023-02-02T16:02:57.900Z,13.37
2023-02-02T16:05:27.194Z,13.44
2023-02-02T16:08:04.921Z,13.69
2023-02-02T16:10:33.216Z,13.69
2023-02-02T16:13:00.591Z,13.68
2023-02-02T16:15:29.130Z,13.44
2023-02-02T16:18:00.302Z,13.67
2023-02-02T16:20:27.726Z,13.22
2023-02-02T16:22:57.481Z,13.65
2023-02-02T16:25:25.531Z,13.64
2023-02-02T16:27:53.123Z,13.63
2023-02-02T16:30:26.046Z,13.62
2023-02-02T16:32:53.427Z,13.61
2023-02-02T16:35:34.014Z,13.60
2023-02-02T16:38:15.883Z,13.58
2023-02-02T16:40:43.318Z,13.54
2023-02-02T16:43:17.772Z,13.55
2023-02-02T16:45:47.244Z,13.53
2023-02-02T16:48:28.401Z,13.51
2023-02-02T16:51:07.684Z,13.50
2023-02-02T16:53:36.430Z,13.49
2023-02-02T16:56:03.863Z,13.48
2023-02-02T16:58:31.550Z,13.46
2023-02-02T17:01:12.735Z,13.46
2023-02-02T17:03:45.894Z,13.44
2023-02-02T17:06:13.292Z,13.44
2023-02-02T17:08:41.966Z,13.44
2023-02-02T17:11:21.209Z,13.43
2023-02-02T17:13:48.575Z,13.41
2023-02-02T17:16:18.706Z,13.39
2023-02-02T17:18:46.020Z,13.36
2023-02-02T17:21:15.077Z,12.80
2023-02-02T17:23:43.793Z,13.35
2023-02-02T17:26:11.244Z,13.28
2023-02-02T17:28:38.917Z,12.77
2023-02-02T17:31:08.158Z,13.31
2023-02-02T17:33:35.861Z,13.29
2023-02-02T17:36:03.468Z,12.90
2023-02-02T17:38:30.868Z,13.27
2023-02-02T17:41:01.736Z,13.25
2023-02-02T17:43:29.353Z,12.84
2023-02-02T17:45:56.773Z,13.23
2023-02-02T17:48:24.153Z,13.24
2023-02-02T17:50:51.513Z,13.21
2023-02-02T17:53:20.199Z,13.21
2023-02-02T17:55:48.112Z,13.20
2023-02-02T17:58:17.906Z,13.19
2023-02-02T18:00:53.024Z,12.78
2023-02-02T18:03:22.945Z,13.16
2023-02-02T18:05:50.372Z,13.15
2023-02-02T18:08:17.861Z,13.14
2023-02-02T18:10:45.435Z,13.09
2023-02-02T18:13:14.304Z,13.13
2023-02-02T18:15:43.108Z,13.11
2023-02-02T18:18:12.202Z,13.07
2023-02-02T18:20:42.243Z,13.06
2023-02-02T18:23:09.763Z,13.08
2023-02-02T18:25:37.565Z,13.07
2023-02-02T18:28:04.967Z,13.06
2023-02-02T18:30:32.877Z,13.06
2023-02-02T18:33:01.586Z,13.05
2023-02-02T18:35:29.047Z,13.03
2023-02-02T18:37:57.698Z,13.03
2023-02-02T18:40:25.060Z,13.02
2023-02-02T18:42:52.435Z,13.01
2023-02-02T18:45:19.953Z,13.00
2023-02-02T18:47:47.346Z,13.00
2023-02-02T18:50:16.496Z,13.00
2023-02-02T18:52:44.255Z,12.99
2023-02-02T18:55:11.630Z,12.90
2023-02-02T18:57:39.078Z,12.96
2023-02-02T19:00:07.560Z,12.96
2023-02-02T19:02:35.202Z,12.95
2023-02-02T19:05:20.087Z,12.92
2023-02-02T19:07:58.991Z,12.92
2023-02-02T19:10:27.023Z,12.92
2023-02-02T19:12:56.495Z,12.93
2023-02-02T19:15:25.944Z,12.93
2023-02-02T19:17:54.103Z,12.91
2023-02-02T19:20:26.603Z,12.36
2023-02-02T19:23:00.019Z,12.89
2023-02-02T19:25:27.779Z,12.86
2023-02-02T19:27:55.451Z,12.89
2023-02-02T19:30:23.892Z,12.70
2023-02-02T19:32:51.428Z,12.88
2023-02-02T19:35:21.112Z,12.81
2023-02-02T19:37:48.827Z,12.42
2023-02-02T19:40:20.115Z,12.85
2023-02-02T19:42:48.327Z,12.85
2023-02-02T19:45:21.526Z,12.84
2023-02-02T19:47:50.959Z,12.84
2023-02-02T19:50:20.465Z,12.84
2023-02-02T19:52:48.173Z,12.83
2023-02-02T19:55:21.808Z,12.84
2023-02-02T19:57:49.273Z,12.82
2023-02-02T20:00:20.290Z,12.80
2023-02-02T20:02:53.117Z,12.82
2023-02-02T20:05:21.307Z,12.82
2023-02-02T20:07:48.796Z,12.42
2023-02-02T20:10:21.267Z,12.80
2023-02-02T20:12:48.675Z,12.81
2023-02-02T20:15:33.722Z,12.31
2023-02-02T20:18:01.821Z,12.72
2023-02-02T20:20:30.820Z,12.78
2023-02-02T20:22:58.253Z,12.78
2023-02-02T20:25:29.099Z,12.77
2023-02-02T20:27:58.807Z,12.76
2023-02-02T20:30:28.115Z,12.18
2023-02-02T20:32:56.497Z,12.76
2023-02-02T20:35:26.557Z,12.72
2023-02-02T20:37:55.559Z,12.75
2023-02-02T20:40:24.737Z,12.36
2023-02-02T20:42:53.611Z,12.75
2023-02-02T20:45:21.505Z,12.76
2023-02-02T20:47:49.350Z,12.15
2023-02-02T20:50:18.198Z,12.75
2023-02-02T20:52:45.690Z,12.74
2023-02-02T20:55:13.050Z,12.74
2023-02-02T20:57:40.432Z,12.74
2023-02-02T21:00:10.663Z,12.37
2023-02-02T21:02:38.079Z,12.18
2023-02-02T21:05:05.977Z,12.73
2023-02-02T21:07:33.357Z,12.73
2023-02-02T21:10:00.734Z,12.72
2023-02-02T21:12:28.131Z,12.71
2023-02-02T21:14:55.658Z,12.71
2023-02-02T21:17:24.404Z,12.70
2023-02-02T21:19:51.839Z,12.69
2023-02-02T21:22:19.258Z,12.71
2023-02-02T21:24:46.622Z,12.71
2023-02-02T21:27:14.028Z,12.70
2023-02-02T21:29:41.425Z,12.69
2023-02-02T21:32:09.064Z,12.69
2023-02-02T21:34:37.986Z,12.69
2023-02-02T21:37:11.771Z,12.70
2023-02-02T21:39:39.162Z,12.69
2023-02-02T21:42:12.246Z,12.70
2023-02-02T21:44:40.420Z,12.69
2023-02-02T21:47:20.456Z,12.70
2023-02-02T21:52:35.202Z,12.47
2023-02-02T21:55:33.430Z,12.74
2023-02-02T21:58:01.360Z,12.71
2023-02-02T22:00:30.800Z,12.48
2023-02-02T22:02:58.863Z,12.70
2023-02-02T22:05:28.401Z,12.19
2023-02-02T22:07:57.860Z,12.69
2023-02-02T22:10:30.513Z,12.69
2023-02-02T22:12:59.222Z,12.69
2023-02-02T22:15:28.227Z,12.32
2023-02-02T22:17:55.598Z,12.68
2023-02-02T22:20:30.811Z,12.68
2023-02-02T22:22:58.228Z,12.67
2023-02-02T22:25:29.293Z,12.68
2023-02-02T22:27:58.794Z,12.39
2023-02-02T22:30:28.328Z,12.67
2023-02-02T22:32:56.200Z,12.63
2023-02-02T22:35:23.585Z,12.66
2023-02-02T22:37:51.312Z,12.66
2023-02-02T22:40:22.301Z,12.66
2023-02-02T22:42:49.888Z,12.66
2023-02-02T22:45:18.635Z,12.65
2023-02-02T22:47:47.381Z,12.66
2023-02-02T22:50:15.182Z,12.65
2023-02-02T22:52:42.574Z,12.66
2023-02-02T22:55:10.449Z,12.67
2023-02-02T22:57:37.887Z,12.07
2023-02-02T23:00:05.894Z,12.19
2023-02-02T23:02:34.638Z,12.68
2023-02-02T23:05:02.025Z,12.68
2023-02-02T23:07:29.397Z,12.68
2023-02-02T23:09:56.775Z,12.69
2023-02-02T23:12:24.149Z,12.69
2023-02-02T23:14:51.530Z,12.70
2023-02-02T23:17:18.902Z,12.69
2023-02-02T23:19:47.623Z,12.69
2023-02-02T23:22:14.986Z,12.69
2023-02-02T23:24:42.368Z,12.69
2023-02-02T23:27:09.720Z,12.69
2023-02-02T23:29:37.090Z,12.70
2023-02-02T23:32:04.595Z,12.70
2023-02-02T23:34:32.731Z,12.70
2023-02-02T23:37:01.427Z,12.70
2023-02-02T23:39:28.802Z,12.70
2023-02-02T23:41:56.181Z,12.72
2023-02-02T23:44:23.559Z,12.71
2023-02-02T23:46:51.003Z,12.72
2023-02-02T23:49:18.436Z,12.68
2023-02-02T23:51:45.930Z,12.71
2023-02-02T23:54:14.604Z,12.71
2023-02-02T23:56:41.970Z,12.71
2023-02-02T23:59:09.387Z,12.68
